Date,TemperatureHighF,TemperatureAvgF,TemperatureLowF,DewpointHighF,DewpointAvgF,DewpointLowF,HumidityHigh,HumidityAvg,HumidityLow,PressureMaxIn,PressureMinIn,WindSpeedMaxMPH,WindSpeedAvgMPH,GustSpeedMaxMPH,PrecipitationSumIn
2013-3-8,-200.0,0.0,200.0,-99.9,-99.9,-99.9,0,0,100,0.00,40.00,0,-999,0,0.00
2013-3-9,63.9,57.0,41.4,43.7,38.2,-99.9,94,53,39,30.13,29.84,14,-7,14,0.17
2013-3-10,58.8,51.8,46.4,52.5,47.8,-99.9,99,88,51,29.85,29.69,10,-2,10,0.98
2013-3-11,46.4,35.1,34.2,44.2,23.9,-99.9,94,69,64,30.02,29.75,11,-26,11,0.01
2013-3-12,50.4,35.4,27.5,28.2,21.8,-99.9,84,63,41,30.15,30.01,14,-17,14,0.00
2013-3-13,44.1,33.3,24.6,20.1,14.8,-99.9,68,48,29,30.44,30.27,14,-5,14,0.00
2013-3-14,51.8,36.5,22.5,33.6,25.0,15.4,85,64,42,30.43,30.14,14,2,14,0.00
2013-3-15,71.1,55.6,26.6,49.6,40.6,24.1,96,60,33,30.03,29.69,8,2,8,0.00
2013-3-16,57.0,44.7,38.1,48.6,38.0,-99.9,92,80,68,30.10,29.67,14,-7,14,0.02
2013-3-17,39.0,35.2,32.9,34.7,30.0,-99.9,98,83,69,30.14,29.82,12,-1,12,0.83
2013-3-18,51.1,40.6,35.8,38.8,33.9,20.1,99,80,41,30.05,29.72,14,4,14,0.02
2013-3-19,51.6,37.4,27.1,20.1,15.3,9.0,64,43,23,30.24,30.05,12,3,12,0.00
2013-3-20,36.7,30.5,23.7,26.8,13.2,3.9,76,50,27,30.31,30.14,15,4,15,0.00
2013-3-21,38.1,28.3,17.1,18.7,11.3,6.8,71,50,28,30.17,30.03,7,2,7,0.00
2013-3-22,41.5,35.3,29.1,25.2,21.7,18.0,72,58,45,30.09,30.02,8,2,8,0.00
2013-3-23,58.3,44.7,33.6,33.3,25.8,18.3,65,49,28,30.09,29.87,11,3,11,0.00
2013-3-24,42.8,32.9,30.6,33.8,31.4,30.4,99,95,63,29.91,29.59,15,2,15,0.08
2013-3-25,38.5,32.4,28.9,31.5,27.9,23.2,99,84,66,30.22,29.84,12,2,12,0.28
2013-3-26,46.0,34.6,25.2,27.7,23.4,19.6,82,65,39,30.38,30.21,10,3,10,0.02
2013-3-27,53.2,35.8,17.2,35.4,21.6,14.0,94,60,32,30.43,30.34,7,1,7,0.00
2013-3-28,60.4,44.5,29.7,39.2,31.1,21.0,82,61,40,30.41,30.27,99,2,99,0.00
2013-3-29,65.5,50.6,37.9,45.9,41.0,35.6,97,71,48,30.29,30.22,8,2,8,0.00
2013-3-30,58.1,46.0,33.1,48.0,41.7,32.9,99,86,57,30.24,29.95,11,2,11,0.06
2013-3-31,71.6,55.9,44.8,50.9,43.9,32.7,99,69,30,29.99,29.86,13,3,13,0.01
2013-4-1,53.2,43.0,35.2,33.6,23.7,16.5,66,48,25,30.27,29.98,13,4,13,0.00
2013-4-2,52.9,38.4,24.6,24.1,16.9,9.3,78,45,22,30.39,30.26,8,2,8,0.00
2013-4-3,56.5,41.7,26.8,27.7,21.6,16.0,75,48,24,30.43,30.29,12,2,12,0.00
2013-4-4,66.0,47.2,30.0,28.0,23.8,15.6,74,44,19,30.29,30.06,11,2,11,0.00
2013-4-5,70.5,51.6,32.5,38.3,32.3,25.3,84,52,22,30.21,30.07,8,2,8,0.00
2013-4-6,76.5,63.3,50.4,44.1,37.6,29.8,63,41,21,30.08,29.75,17,5,17,0.00
2013-4-7,83.8,67.1,48.9,59.7,48.9,39.6,86,56,22,29.96,29.84,12,3,12,0.00
2013-4-8,81.9,70.1,60.4,60.8,57.5,54.1,85,66,44,29.91,29.75,11,4,11,0.00
2013-4-9,80.8,70.9,63.9,63.0,60.2,57.2,82,70,52,29.91,29.85,15,4,15,0.00
2013-4-10,79.7,68.1,54.7,71.1,63.3,53.8,99,85,62,29.89,29.61,22,3,22,1.11
2013-4-11,56.3,47.7,40.1,55.9,42.8,30.4,99,84,64,29.79,29.66,13,4,13,0.05
2013-4-12,46.2,42.3,37.2,34.5,32.2,29.3,79,67,57,30.04,29.75,13,4,13,0.00
2013-4-13,66.2,48.9,34.5,40.6,35.3,31.1,90,62,33,30.09,29.93,11,3,11,0.00
2013-4-14,81.9,63.3,43.7,56.5,46.9,39.6,87,58,27,29.94,29.66,21,5,21,0.33
2013-4-15,71.6,61.6,53.1,64.8,56.7,50.7,99,85,65,29.94,29.76,10,3,10,0.22
2013-4-16,53.2,47.4,44.8,51.8,46.4,44.1,99,96,87,30.19,29.91,11,3,11,1.45
2013-4-17,87.6,65.5,48.9,69.1,58.5,46.8,99,81,48,30.16,29.71,14,4,14,0.00
2013-4-18,75.4,59.9,41.4,68.2,56.2,34.0,99,88,73,29.80,29.59,20,5,20,2.56
2013-4-19,52.5,43.6,38.1,34.2,28.5,24.3,75,56,36,30.09,29.78,21,5,21,0.00
2013-4-20,62.8,45.7,30.0,33.8,28.7,21.7,92,56,21,30.37,30.09,10,2,10,0.00
2013-4-21,67.6,52.4,40.3,42.6,36.9,31.8,79,57,37,30.45,30.28,12,4,12,0.00
2013-4-22,77.2,58.8,36.0,48.0,40.8,34.3,99,57,25,30.31,30.02,68,2,68,0.00
2013-4-23,61.7,52.3,39.6,57.7,48.3,39.4,99,88,62,30.06,29.91,12,2,12,0.74
2013-4-24,58.6,44.5,36.7,39.6,35.3,28.4,99,75,34,30.28,30.02,11,3,11,0.05
2013-4-25,70.2,51.4,33.8,39.6,32.7,25.3,99,56,20,30.38,30.25,9,2,9,0.30
2013-4-26,61.7,53.7,46.8,48.2,43.4,37.2,82,68,57,30.41,30.28,9,2,9,0.00
2013-4-27,54.0,51.8,48.6,53.1,50.5,44.8,99,95,77,30.32,29.95,5,2,5,0.52
2013-4-28,60.4,54.9,50.7,55.2,51.9,48.6,98,90,75,29.99,29.91,8,2,8,0.09
2013-4-29,83.7,63.3,42.1,61.5,54.2,41.7,99,76,45,29.98,29.82,10,2,10,0.00
2013-4-30,111.6,73.8,55.9,62.4,58.9,42.4,99,64,31,29.98,29.83,11,2,11,0.00
2013-5-1,91.6,72.9,53.8,62.4,57.3,48.9,99,63,30,30.12,29.98,9,2,9,0.00
2013-5-2,74.8,60.6,44.2,63.7,55.5,43.7,99,85,52,30.19,30.09,10,2,10,0.63
2013-5-3,44.6,43.7,42.3,43.9,43.1,42.1,99,98,97,30.12,29.83,6,1,6,2.24
2013-5-4,49.5,45.1,41.5,46.8,43.6,40.5,99,94,83,30.05,29.86,6,1,6,0.05
2013-5-5,63.3,53.7,44.2,58.8,51.7,-99.9,99,94,77,30.03,29.92,10,-2,10,0.13
2013-5-6,70.0,61.7,54.3,58.3,54.9,52.2,97,80,55,30.01,29.93,12,2,12,0.00
2013-5-7,81.9,66.4,55.0,60.6,56.8,52.7,99,75,39,30.07,29.99,7,1,7,0.00
2013-5-8,90.3,68.7,49.6,64.0,54.0,45.9,99,67,26,30.07,29.99,7,1,7,0.33
2013-5-9,80.1,67.7,59.7,67.8,62.3,58.8,98,84,60,30.02,29.87,6,1,6,0.39
2013-5-10,69.1,61.1,54.7,63.0,57.5,50.5,99,88,71,30.03,29.86,9,2,9,0.00
2013-5-11,73.4,59.6,46.0,56.1,45.1,28.2,96,64,25,30.19,30.01,16,2,16,0.00
2013-5-12,69.8,52.9,39.2,37.8,32.2,20.1,84,50,19,30.25,30.16,9,2,9,0.00
2013-5-13,82.6,59.3,37.0,47.1,38.1,23.0,99,55,17,30.25,30.05,8,1,8,0.00
2013-5-14,99.7,75.4,51.8,61.5,53.1,46.0,91,51,22,30.24,29.82,11,2,11,0.00
2013-5-15,99.9,81.1,69.1,65.8,59.4,51.8,74,49,30,29.96,29.83,8,2,8,0.00
2013-5-16,88.7,74.4,63.1,67.8,63.7,57.7,92,71,38,29.98,29.87,9,1,9,0.00
2013-5-17,81.3,69.9,59.4,68.4,63.9,58.8,99,82,61,30.00,29.94,118,1,118,0.00
2013-5-18,93.0,74.4,63.7,68.9,65.4,62.8,99,76,42,30.04,29.91,7,1,7,0.00
2013-5-19,95.0,80.7,68.9,74.5,69.3,64.9,92,70,47,29.94,29.74,12,2,12,0.08
2013-5-20,88.0,73.8,62.2,71.6,67.1,59.4,99,81,53,29.93,29.72,24,2,24,1.58
2013-5-21,88.0,72.1,63.1,70.0,64.6,60.4,99,79,49,29.88,29.73,8,1,8,0.14
2013-5-22,81.0,70.1,63.0,65.3,60.0,54.9,98,73,43,29.90,29.69,14,2,14,0.00
2013-5-23,66.9,61.9,53.2,60.6,55.6,52.2,97,80,67,30.27,29.89,11,2,11,0.00
2013-5-24,81.9,58.9,44.6,52.2,44.2,37.0,99,65,23,30.43,30.26,9,2,9,0.02
2013-5-25,73.8,59.1,47.8,59.7,52.3,47.3,99,80,49,30.39,30.17,11,1,11,0.12
2013-5-26,85.1,69.9,55.6,67.1,58.8,49.6,83,69,50,30.23,30.02,11,3,11,0.05
2013-5-27,88.3,71.2,63.0,71.1,65.8,62.1,99,85,55,30.07,29.74,14,1,14,0.78
2013-5-28,90.3,73.7,62.8,74.5,67.3,61.9,99,83,48,29.93,29.77,12,1,12,0.32
2013-5-29,93.6,79.2,64.9,70.9,65.4,61.3,95,65,42,29.99,29.85,10,2,10,0.00
2013-5-30,85.3,76.0,66.9,72.3,69.1,63.7,99,80,60,29.95,29.82,12,2,12,0.37
2013-5-31,84.2,70.5,63.3,75.7,67.7,62.4,99,91,69,29.93,29.76,12,1,12,1.09
2013-6-1,85.1,69.0,64.0,70.7,64.5,57.9,99,87,56,29.92,29.74,11,1,11,0.26
2013-6-2,71.6,64.5,59.9,61.9,58.1,54.7,91,80,68,30.06,29.91,8,2,8,0.00
2013-6-3,80.6,63.5,54.0,55.9,53.3,49.6,97,72,37,30.13,30.03,8,1,8,0.35
2013-6-4,77.7,64.1,49.3,59.9,55.2,49.1,99,76,45,30.12,30.02,8,1,8,0.00
2013-6-5,90.7,70.7,56.3,66.6,60.9,52.3,99,77,28,30.06,29.88,4,1,4,0.06
2013-6-6,84.4,70.8,61.9,66.7,61.0,53.2,99,74,43,29.91,29.85,7,1,7,0.01
2013-6-7,82.8,68.0,59.2,60.3,57.9,55.6,98,72,44,29.94,29.88,10,2,10,0.00
2013-6-8,91.8,71.4,55.0,60.4,57.0,51.1,99,66,28,30.01,29.93,5,1,5,0.00
2013-6-9,83.1,68.6,61.3,66.7,62.5,58.5,98,82,51,29.99,29.83,9,0,9,0.19
2013-6-10,85.8,70.9,62.6,68.0,63.9,60.8,99,81,48,29.95,29.80,5,1,5,0.01
2013-6-11,101.1,77.8,58.5,74.1,67.5,58.1,99,75,41,30.00,29.88,8,1,8,0.00
2013-6-12,102.4,85.2,69.8,76.3,72.0,-99.9,99,68,40,29.98,29.75,9,-2,9,0.00
2013-6-13,93.0,77.4,64.0,72.3,64.0,55.6,88,66,31,30.02,29.77,11,2,11,0.00
2013-6-14,93.6,73.7,59.7,64.4,60.8,56.5,99,68,35,30.13,29.94,8,1,8,0.00
2013-6-15,98.1,77.9,67.5,72.9,66.8,61.2,99,71,42,30.11,29.95,11,1,11,1.31
2013-6-16,91.6,75.8,67.5,76.3,71.5,67.1,99,88,56,30.08,29.94,5,1,5,0.47
2013-6-17,91.8,74.8,65.5,76.5,71.0,65.1,99,89,54,29.98,29.88,8,1,8,0.11
2013-6-18,97.3,77.4,63.1,73.2,65.5,58.3,99,71,33,30.01,29.93,8,1,8,0.00
2013-6-19,97.2,76.3,63.9,68.7,65.0,62.4,97,71,35,30.11,30.00,7,1,7,0.00
2013-6-20,99.9,80.9,64.4,72.0,68.0,64.0,99,70,34,30.15,30.06,5,1,5,0.00
2013-6-21,98.4,84.4,71.1,74.3,71.8,69.8,97,69,44,30.14,30.01,7,1,7,0.00
2013-6-22,95.2,75.5,67.1,78.4,71.2,66.7,99,88,54,30.12,30.03,12,1,12,0.81
2013-6-23,90.0,73.8,66.7,76.6,69.6,65.3,99,88,62,30.09,29.99,16,1,16,0.44
2013-6-24,102.2,81.4,67.1,77.0,71.9,66.7,99,76,39,30.11,29.96,7,1,7,0.01
2013-6-25,101.1,85.9,75.9,76.6,74.0,72.0,92,70,43,30.00,29.80,11,1,11,0.00
2013-6-26,100.8,80.9,71.8,80.8,74.8,70.9,99,83,49,29.92,29.74,9,1,9,0.39
2013-6-27,99.9,83.0,72.7,75.4,72.4,67.8,99,74,40,29.92,29.80,6,1,6,0.00
2013-6-28,93.2,81.7,73.6,73.4,66.6,54.3,95,64,31,29.89,29.72,9,2,9,0.00
2013-6-29,87.3,72.0,63.9,71.2,63.9,59.5,99,78,47,29.77,29.68,20,1,20,0.53
2013-6-30,80.4,69.4,64.4,68.9,64.3,61.2,99,84,62,29.95,29.76,14,3,14,0.05
2013-7-1,81.5,72.1,63.9,64.6,56.4,52.5,87,59,42,30.01,29.93,14,3,14,0.00
2013-7-2,69.1,64.1,60.8,63.5,60.6,55.9,98,89,63,30.07,29.97,11,2,11,0.69
2013-7-3,93.6,72.8,60.6,67.6,62.4,59.0,99,74,36,30.12,30.04,5,0,5,0.01
2013-7-4,94.1,75.1,60.8,66.4,63.1,60.3,99,71,37,30.12,30.03,8,1,8,0.00
2013-7-5,92.5,75.8,62.6,72.1,66.5,61.7,99,76,42,30.11,30.03,9,1,9,0.00
2013-7-6,98.8,77.7,65.8,74.5,67.9,59.5,99,75,36,30.09,29.99,8,1,8,0.01
2013-7-7,99.1,81.4,66.4,74.1,69.8,65.7,99,71,40,30.08,30.01,3,0,3,0.00
2013-7-8,99.9,84.3,72.0,75.9,73.0,69.8,94,71,43,30.13,30.03,4,0,4,0.00
2013-7-9,102.4,87.5,77.2,77.5,74.8,72.7,87,68,44,30.08,29.95,4,0,4,0.00
2013-7-10,-200.0,0.0,200.0,-99.9,-99.9,-99.9,0,0,100,0.00,40.00,0,-999,0,0.00